createdAt,value
2018-05-21T00:00:30.775Z,75.50
2018-05-21T00:02:58.163Z,75.01
2018-05-21T00:05:25.556Z,74.61
2018-05-21T00:07:52.943Z,74.76
2018-05-21T00:10:20.343Z,74.60
2018-05-21T00:12:47.725Z,74.89
2018-05-21T00:15:15.114Z,75.19
2018-05-21T00:17:42.503Z,74.69
2018-05-21T00:20:09.890Z,74.55
2018-05-21T00:22:37.285Z,74.40
2018-05-21T00:25:04.678Z,74.45
2018-05-21T00:27:32.077Z,74.62
2018-05-21T00:29:59.459Z,74.45
2018-05-21T00:32:26.851Z,74.08
2018-05-21T00:34:54.239Z,73.33
2018-05-21T00:37:21.626Z,73.36
2018-05-21T00:39:49.015Z,73.38
2018-05-21T00:42:16.411Z,72.14
2018-05-21T00:44:43.798Z,71.50
2018-05-21T00:47:11.194Z,70.00
2018-05-21T00:49:38.578Z,70.48
2018-05-21T00:52:05.970Z,70.86
2018-05-21T00:54:33.359Z,70.60
2018-05-21T00:57:00.750Z,70.63
2018-05-21T00:59:28.142Z,70.71
2018-05-21T01:01:55.543Z,70.95
2018-05-21T01:04:22.934Z,71.60
2018-05-21T01:06:50.323Z,69.98
2018-05-21T01:09:17.717Z,70.00
2018-05-21T01:11:45.107Z,69.48
2018-05-21T01:14:12.503Z,69.69
2018-05-21T01:16:39.896Z,67.48
2018-05-21T01:19:07.290Z,64.56
2018-05-21T01:21:34.679Z,63.02
2018-05-21T01:24:02.071Z,59.94
2018-05-21T01:26:29.459Z,58.74
2018-05-21T01:28:56.855Z,57.12
2018-05-21T01:31:24.239Z,56.44
2018-05-21T01:33:51.630Z,55.42
2018-05-21T01:36:19.014Z,54.32
2018-05-21T01:38:46.410Z,54.17
2018-05-21T01:41:13.798Z,54.27
2018-05-21T01:43:41.191Z,55.36
2018-05-21T01:46:08.586Z,56.15
2018-05-21T01:48:35.967Z,56.89
2018-05-21T01:51:03.354Z,57.46
2018-05-21T01:53:30.749Z,56.71
2018-05-21T01:55:58.153Z,55.06
2018-05-21T01:58:25.527Z,54.92
2018-05-21T02:00:53.043Z,56.54
2018-05-21T02:03:20.428Z,56.45
2018-05-21T02:05:47.822Z,56.83
2018-05-21T02:08:15.247Z,58.47
2018-05-21T02:10:42.603Z,60.05
2018-05-21T02:13:09.991Z,61.53
2018-05-21T02:15:37.390Z,62.30
2018-05-21T02:18:04.781Z,62.54
2018-05-21T02:20:32.175Z,63.01
2018-05-21T02:22:59.564Z,64.23
2018-05-21T02:25:26.962Z,65.11
2018-05-21T02:27:54.347Z,64.23
2018-05-21T02:30:21.740Z,63.81
2018-05-21T02:32:49.131Z,64.76
2018-05-21T02:35:16.616Z,65.07
2018-05-21T02:37:43.914Z,65.15
2018-05-21T02:40:11.318Z,65.03
2018-05-21T02:42:38.717Z,65.02
2018-05-21T02:45:06.107Z,64.79
2018-05-21T02:47:33.503Z,63.78
2018-05-21T02:50:00.893Z,64.75
2018-05-21T02:52:28.279Z,64.37
2018-05-21T02:54:55.664Z,63.95
2018-05-21T02:57:23.059Z,63.45
2018-05-21T02:59:50.447Z,64.00
2018-05-21T03:02:17.842Z,64.87
2018-05-21T03:04:45.237Z,64.95
2018-05-21T03:07:12.633Z,66.26
2018-05-21T03:09:40.023Z,65.28
2018-05-21T03:12:07.418Z,64.58
2018-05-21T03:14:34.799Z,64.07
2018-05-21T03:17:02.188Z,65.28
2018-05-21T03:19:29.587Z,65.60
2018-05-21T03:21:56.970Z,64.38
2018-05-21T03:24:24.358Z,64.33
2018-05-21T03:26:51.747Z,64.02
2018-05-21T03:29:19.139Z,65.27
2018-05-21T03:31:46.523Z,64.52
2018-05-21T03:34:13.915Z,64.37
2018-05-21T03:36:41.306Z,63.67
2018-05-21T03:39:08.711Z,63.77
2018-05-21T03:41:36.090Z,63.47
2018-05-21T03:44:03.522Z,61.05
2018-05-21T03:46:30.919Z,60.12
2018-05-21T03:48:58.315Z,61.67
2018-05-21T03:51:25.707Z,61.84
2018-05-21T03:53:53.095Z,62.33
2018-05-21T03:56:20.482Z,63.40
2018-05-21T03:58:59.610Z,63.53
2018-05-21T04:01:38.814Z,61.02
2018-05-21T04:04:06.204Z,59.29
2018-05-21T04:06:33.604Z,59.83
2018-05-21T04:09:01.039Z,59.02
2018-05-21T04:11:28.435Z,59.16
2018-05-21T04:13:55.845Z,59.65
2018-05-21T04:16:23.236Z,59.07
2018-05-21T04:18:50.708Z,60.67
2018-05-21T04:21:18.015Z,61.06
2018-05-21T04:23:45.407Z,59.95
2018-05-21T04:26:12.828Z,60.47
2018-05-21T04:28:40.230Z,61.28
2018-05-21T04:31:07.672Z,62.11
2018-05-21T04:33:35.077Z,61.59
2018-05-21T04:36:02.529Z,61.25
2018-05-21T04:38:29.946Z,61.80
2018-05-21T04:40:57.351Z,60.07
2018-05-21T04:43:24.798Z,61.76
2018-05-21T04:45:52.226Z,57.62
2018-05-21T04:48:19.674Z,56.71
2018-05-21T04:50:47.107Z,57.66
2018-05-21T04:53:14.510Z,55.93
2018-05-21T04:55:41.893Z,55.67
2018-05-21T04:58:09.327Z,57.06
2018-05-21T05:00:36.743Z,55.81
2018-05-21T05:03:04.158Z,55.17
2018-05-21T05:05:31.550Z,55.75
2018-05-21T05:07:58.942Z,54.39
2018-05-21T05:10:26.340Z,54.31
2018-05-21T05:12:53.723Z,54.64
2018-05-21T05:15:21.119Z,54.55
2018-05-21T05:17:48.504Z,54.69
2018-05-21T05:20:15.894Z,54.69
2018-05-21T05:22:43.286Z,54.17
2018-05-21T05:25:10.678Z,55.17
2018-05-21T05:27:38.075Z,54.46
2018-05-21T05:30:05.472Z,54.39
2018-05-21T05:32:32.855Z,54.85
2018-05-21T05:35:00.243Z,55.15
2018-05-21T05:37:27.635Z,54.82
2018-05-21T05:39:55.023Z,55.50
2018-05-21T05:42:22.419Z,54.80
2018-05-21T05:44:49.822Z,56.58
2018-05-21T05:47:17.214Z,55.53
2018-05-21T05:49:44.601Z,56.32
2018-05-21T05:52:11.993Z,56.16
2018-05-21T05:54:39.371Z,55.88
2018-05-21T05:57:06.766Z,55.16
2018-05-21T05:59:34.153Z,55.61
2018-05-21T06:02:01.547Z,55.70
2018-05-21T06:04:28.952Z,55.39
2018-05-21T06:06:56.362Z,54.62
2018-05-21T06:09:23.735Z,54.16
2018-05-21T06:11:51.129Z,55.37
2018-05-21T06:14:18.515Z,55.22
2018-05-21T06:16:45.910Z,54.17
2018-05-21T06:19:13.295Z,54.83
2018-05-21T06:21:40.686Z,54.50
2018-05-21T06:24:08.083Z,54.23
2018-05-21T06:26:35.491Z,53.45
2018-05-21T06:29:02.879Z,54.12
2018-05-21T06:31:30.346Z,54.57
2018-05-21T06:33:57.734Z,54.08
2018-05-21T06:36:25.063Z,54.78
2018-05-21T06:38:52.451Z,53.99
2018-05-21T06:41:19.843Z,53.54
2018-05-21T06:43:47.239Z,53.76
2018-05-21T06:46:14.631Z,52.53
2018-05-21T06:48:42.031Z,52.40
2018-05-21T06:51:09.426Z,51.35
2018-05-21T06:53:36.824Z,51.52
2018-05-21T06:56:04.212Z,51.54
2018-05-21T06:58:31.598Z,51.58
2018-05-21T07:00:58.995Z,52.77
2018-05-21T07:03:26.389Z,53.03
2018-05-21T07:05:53.775Z,53.62
2018-05-21T07:08:21.174Z,52.60
2018-05-21T07:10:48.550Z,52.91
2018-05-21T07:13:15.949Z,52.53
2018-05-21T07:15:43.335Z,51.29
2018-05-21T07:18:10.737Z,52.92
2018-05-21T07:20:38.127Z,53.27
2018-05-21T07:23:05.507Z,53.16
2018-05-21T07:25:32.899Z,52.56
2018-05-21T07:28:00.282Z,51.29
2018-05-21T07:30:27.685Z,53.49
2018-05-21T07:32:55.073Z,52.25
2018-05-21T07:35:22.463Z,49.71
2018-05-21T07:37:49.859Z,49.04
2018-05-21T07:40:17.250Z,49.83
2018-05-21T07:42:44.637Z,49.87
2018-05-21T07:45:12.131Z,52.66
2018-05-21T07:47:39.583Z,51.28
2018-05-21T07:50:06.992Z,50.84
2018-05-21T07:52:34.378Z,51.02
2018-05-21T07:55:01.782Z,49.45
2018-05-21T07:57:29.163Z,50.49
2018-05-21T07:59:56.598Z,50.53
2018-05-21T08:02:23.995Z,51.71
2018-05-21T08:04:51.387Z,51.71
2018-05-21T08:07:18.778Z,52.49
2018-05-21T08:09:46.173Z,54.16
2018-05-21T08:12:13.562Z,53.64
2018-05-21T08:14:40.985Z,51.36
2018-05-21T08:17:08.359Z,52.06
2018-05-21T08:19:35.747Z,48.72
2018-05-21T08:22:03.142Z,49.39
2018-05-21T08:24:30.539Z,49.22
2018-05-21T08:26:58.038Z,49.48
2018-05-21T08:29:25.455Z,48.20
2018-05-21T08:31:52.815Z,49.76
2018-05-21T08:34:20.215Z,48.42
2018-05-21T08:36:47.672Z,48.96
2018-05-21T08:39:15.072Z,50.37
2018-05-21T08:41:42.454Z,50.01
2018-05-21T08:44:09.851Z,49.33
2018-05-21T08:46:37.254Z,49.54
2018-05-21T08:49:04.643Z,48.07
2018-05-21T08:51:32.051Z,45.31
2018-05-21T08:53:59.431Z,46.22
2018-05-21T08:56:26.884Z,45.50
2018-05-21T08:58:54.283Z,46.23
2018-05-21T09:01:21.677Z,46.99
2018-05-21T09:03:49.118Z,44.07
2018-05-21T09:06:16.540Z,47.46
2018-05-21T09:08:43.951Z,47.50
2018-05-21T09:11:11.353Z,46.69
2018-05-21T09:13:38.744Z,43.70
2018-05-21T09:16:06.148Z,45.87
2018-05-21T09:18:33.530Z,42.76
2018-05-21T09:21:00.994Z,41.14
2018-05-21T09:23:28.541Z,42.46
2018-05-21T09:25:55.988Z,44.70
2018-05-21T09:28:23.450Z,41.24
2018-05-21T09:30:50.906Z,40.75
2018-05-21T09:33:21.346Z,43.25
2018-05-21T09:35:48.731Z,38.85
2018-05-21T09:38:16.122Z,38.42
2018-05-21T09:40:43.523Z,40.78
2018-05-21T09:43:10.920Z,39.65
2018-05-21T09:45:38.311Z,40.92
2018-05-21T09:48:05.707Z,40.44
2018-05-21T09:50:33.087Z,40.05
2018-05-21T09:53:00.479Z,37.51
2018-05-21T09:55:27.874Z,36.31
2018-05-21T09:57:55.258Z,35.77
2018-05-21T10:00:24.486Z,38.17
2018-05-21T10:02:51.897Z,34.37
2018-05-21T10:05:19.348Z,35.89
2018-05-21T10:07:46.775Z,34.20
2018-05-21T10:10:14.204Z,32.70
2018-05-21T10:12:41.642Z,35.27
2018-05-21T10:15:09.063Z,33.27
2018-05-21T10:17:36.452Z,33.18
2018-05-21T10:20:03.837Z,31.83
2018-05-21T10:22:31.236Z,32.72
2018-05-21T10:24:58.624Z,31.62
2018-05-21T10:27:26.021Z,29.46
2018-05-21T10:29:53.408Z,30.61
2018-05-21T10:32:20.801Z,29.19
2018-05-21T10:34:48.227Z,36.27
2018-05-21T10:37:15.717Z,29.73
2018-05-21T10:39:43.011Z,31.32
2018-05-21T10:42:10.403Z,30.24
2018-05-21T10:44:37.795Z,28.63
2018-05-21T10:47:05.187Z,31.43
2018-05-21T10:49:32.587Z,27.13
2018-05-21T10:51:59.978Z,29.16
2018-05-21T10:54:27.383Z,31.09
2018-05-21T10:56:54.835Z,30.39
2018-05-21T10:59:22.232Z,30.16
2018-05-21T11:01:49.619Z,26.75
2018-05-21T11:04:17.015Z,32.25
2018-05-21T11:06:44.407Z,27.85
2018-05-21T11:09:11.799Z,30.03
2018-05-21T11:11:39.178Z,30.18
2018-05-21T11:14:06.590Z,27.66
2018-05-21T11:16:33.975Z,27.16
2018-05-21T11:19:01.371Z,28.74
2018-05-21T11:21:28.762Z,27.13
2018-05-21T11:23:56.147Z,28.61
2018-05-21T11:26:23.569Z,27.24
2018-05-21T11:28:53.238Z,28.29
2018-05-21T11:31:20.628Z,28.85
2018-05-21T11:33:48.018Z,31.81
2018-05-21T11:36:15.415Z,26.57
2018-05-21T11:38:42.808Z,29.31
2018-05-21T11:41:10.207Z,29.13
2018-05-21T11:43:37.588Z,25.41
2018-05-21T11:46:04.987Z,25.82
2018-05-21T11:48:32.380Z,27.35
2018-05-21T11:50:59.774Z,28.17
2018-05-21T11:53:27.162Z,26.94
2018-05-21T11:55:54.557Z,25.88
2018-05-21T11:58:21.939Z,24.89
2018-05-21T12:00:49.328Z,25.35
2018-05-21T12:03:16.735Z,23.97
2018-05-21T12:05:44.127Z,26.03
2018-05-21T12:08:11.524Z,26.98
2018-05-21T12:10:39.062Z,23.49
2018-05-21T12:13:06.456Z,24.51
2018-05-21T12:15:33.855Z,25.56
2018-05-21T12:18:01.251Z,26.67
2018-05-21T12:20:28.635Z,25.19
2018-05-21T12:22:56.027Z,28.87
2018-05-21T12:25:23.410Z,29.76
2018-05-21T12:27:50.808Z,29.58
2018-05-21T12:30:18.191Z,25.79
2018-05-21T12:32:45.579Z,25.22
2018-05-21T12:35:12.971Z,26.36
2018-05-21T12:37:40.355Z,27.03
2018-05-21T12:40:07.755Z,25.06
2018-05-21T12:42:35.242Z,26.31
2018-05-21T12:45:02.611Z,25.29
2018-05-21T12:47:30.002Z,24.62
2018-05-21T12:49:57.391Z,25.52
2018-05-21T12:52:24.847Z,28.50
2018-05-21T12:54:52.240Z,30.52
2018-05-21T12:57:19.623Z,28.43
2018-05-21T12:59:47.014Z,26.49
2018-05-21T13:02:14.411Z,26.14
2018-05-21T13:04:41.792Z,24.86
2018-05-21T13:07:09.177Z,25.74
2018-05-21T13:09:36.566Z,28.34
2018-05-21T13:12:03.955Z,27.09
2018-05-21T13:14:31.344Z,27.54
2018-05-21T13:16:58.760Z,25.32
2018-05-21T13:19:26.151Z,26.39
2018-05-21T13:21:53.530Z,31.00
2018-05-21T13:24:21.021Z,26.04
2018-05-21T13:26:48.351Z,27.37
2018-05-21T13:29:15.734Z,24.95
2018-05-21T13:31:43.118Z,26.28
2018-05-21T13:34:10.545Z,25.97
2018-05-21T13:36:37.923Z,27.09
2018-05-21T13:39:06.216Z,29.79
2018-05-21T13:41:33.638Z,29.91
2018-05-21T13:44:01.023Z,33.48
2018-05-21T13:46:28.411Z,27.17
2018-05-21T13:48:55.800Z,29.06
2018-05-21T13:51:23.191Z,29.63
2018-05-21T13:53:50.578Z,29.39
2018-05-21T13:56:17.967Z,29.61
2018-05-21T13:58:45.355Z,28.98
2018-05-21T14:01:12.739Z,30.98
2018-05-21T14:03:40.132Z,33.71
2018-05-21T14:06:07.515Z,33.76
2018-05-21T14:08:34.899Z,32.64
2018-05-21T14:11:02.300Z,33.06
2018-05-21T14:13:29.684Z,32.15
2018-05-21T14:15:57.071Z,29.97
2018-05-21T14:18:24.463Z,29.67
2018-05-21T14:20:51.904Z,32.35
2018-05-21T14:23:19.291Z,35.53
2018-05-21T14:25:46.679Z,32.75
2018-05-21T14:28:14.088Z,32.84
2018-05-21T14:30:41.478Z,33.39
2018-05-21T14:33:08.899Z,32.85
2018-05-21T14:35:36.250Z,33.36
2018-05-21T14:38:03.634Z,33.45
2018-05-21T14:40:31.024Z,35.43
2018-05-21T14:42:58.410Z,30.75
2018-05-21T14:45:25.808Z,33.13
2018-05-21T14:47:53.211Z,31.86
2018-05-21T14:50:20.599Z,32.34
2018-05-21T14:52:48.015Z,34.43
2018-05-21T14:55:15.386Z,33.92
2018-05-21T14:57:42.767Z,33.06
2018-05-21T15:00:10.162Z,33.22
2018-05-21T15:02:37.781Z,34.92
2018-05-21T15:05:05.155Z,34.43
2018-05-21T15:07:32.602Z,34.82
2018-05-21T15:09:59.966Z,34.04
2018-05-21T15:12:27.350Z,33.84
2018-05-21T15:14:54.742Z,34.03
2018-05-21T15:17:22.126Z,35.25
2018-05-21T15:19:49.515Z,34.91
2018-05-21T15:22:16.961Z,35.01
2018-05-21T15:24:44.291Z,35.38
2018-05-21T15:27:11.677Z,34.44
2018-05-21T15:29:39.063Z,32.18
2018-05-21T15:32:06.535Z,34.35
2018-05-21T15:34:33.927Z,33.98
2018-05-21T15:37:01.315Z,32.67
2018-05-21T15:39:28.703Z,32.87
2018-05-21T15:41:56.083Z,33.16
2018-05-21T15:44:23.468Z,33.65
2018-05-21T15:46:50.855Z,32.34
2018-05-21T15:49:18.258Z,32.55
2018-05-21T15:51:45.654Z,33.39
2018-05-21T15:54:13.037Z,35.33
2018-05-21T15:56:40.424Z,33.59
2018-05-21T15:59:07.822Z,32.80
2018-05-21T16:01:35.207Z,35.02
2018-05-21T16:04:02.591Z,30.98
2018-05-21T16:06:29.979Z,32.47
2018-05-21T16:08:57.367Z,35.85
2018-05-21T16:11:24.909Z,33.65
2018-05-21T16:13:52.393Z,34.59
2018-05-21T16:16:19.776Z,35.84
2018-05-21T16:18:47.250Z,34.01
2018-05-21T16:21:14.630Z,34.03
2018-05-21T16:23:42.030Z,33.09
2018-05-21T16:26:09.410Z,35.01
2018-05-21T16:28:36.803Z,34.30
2018-05-21T16:31:04.188Z,35.13
2018-05-21T16:33:31.598Z,34.62
2018-05-21T16:35:58.963Z,33.06
2018-05-21T16:38:26.363Z,33.93
2018-05-21T16:40:53.760Z,34.24
2018-05-21T16:43:21.143Z,34.63
2018-05-21T16:45:48.531Z,33.96
2018-05-21T16:48:15.923Z,33.63
2018-05-21T16:50:43.303Z,34.49
2018-05-21T16:53:10.691Z,34.70
2018-05-21T16:55:38.075Z,32.20
2018-05-21T16:58:05.466Z,33.17
2018-05-21T17:00:32.857Z,36.82
2018-05-21T17:03:00.248Z,34.25
2018-05-21T17:05:27.639Z,35.64
2018-05-21T17:07:55.060Z,34.76
2018-05-21T17:10:22.460Z,32.42
2018-05-21T17:12:49.842Z,37.81
2018-05-21T17:15:17.239Z,35.30
2018-05-21T17:17:44.614Z,36.42
2018-05-21T17:20:12.009Z,36.46
2018-05-21T17:22:39.387Z,36.24
2018-05-21T17:25:06.782Z,35.13
2018-05-21T17:27:34.157Z,36.60
2018-05-21T17:30:01.542Z,37.13
2018-05-21T17:32:28.941Z,36.05
2018-05-21T17:34:56.319Z,36.39
2018-05-21T17:37:23.707Z,36.10
2018-05-21T17:39:51.099Z,37.25
2018-05-21T17:42:18.549Z,37.30
2018-05-21T17:44:45.866Z,37.43
2018-05-21T17:47:13.263Z,35.36
2018-05-21T17:49:40.647Z,38.10
2018-05-21T17:52:08.039Z,37.82
2018-05-21T17:54:35.431Z,38.52
2018-05-21T17:57:02.819Z,40.33
2018-05-21T17:59:30.203Z,42.32
2018-05-21T18:01:57.590Z,44.73
2018-05-21T18:04:24.974Z,44.90
2018-05-21T18:06:52.379Z,42.26
2018-05-21T18:09:19.759Z,43.98
2018-05-21T18:11:47.163Z,41.58
2018-05-21T18:14:14.535Z,44.67
2018-05-21T18:16:41.938Z,46.81
2018-05-21T18:19:09.332Z,45.63
2018-05-21T18:21:36.719Z,47.82
2018-05-21T18:24:04.111Z,49.38
2018-05-21T18:26:31.499Z,49.66
2018-05-21T18:28:58.899Z,47.11
2018-05-21T18:31:26.288Z,51.21
2018-05-21T18:33:53.678Z,51.23
2018-05-21T18:36:21.066Z,51.63
2018-05-21T18:38:48.478Z,51.39
2018-05-21T18:41:15.870Z,52.46
2018-05-21T18:43:43.330Z,52.47
2018-05-21T18:46:10.718Z,52.67
2018-05-21T18:48:38.103Z,52.49
2018-05-21T18:51:05.522Z,52.58
2018-05-21T18:53:32.927Z,54.09
2018-05-21T18:56:00.314Z,54.26
2018-05-21T18:58:27.719Z,54.30
2018-05-21T19:00:55.138Z,54.25
2018-05-21T19:03:22.555Z,54.94
2018-05-21T19:05:51.004Z,54.68
2018-05-21T19:08:18.387Z,54.73
2018-05-21T19:10:46.059Z,54.21
2018-05-21T19:13:13.455Z,54.15
2018-05-21T19:15:40.861Z,55.01
2018-05-21T19:18:08.247Z,54.26
2018-05-21T19:20:35.646Z,54.33
2018-05-21T19:23:03.035Z,50.94
2018-05-21T19:25:30.423Z,51.05
2018-05-21T19:27:58.042Z,50.57
2018-05-21T19:30:25.423Z,51.55
2018-05-21T19:32:52.869Z,50.91
2018-05-21T19:35:20.247Z,52.38
2018-05-21T19:37:47.636Z,48.04
2018-05-21T19:40:15.085Z,48.09
2018-05-21T19:42:42.421Z,47.75
2018-05-21T19:45:09.806Z,46.79
2018-05-21T19:47:37.203Z,47.83
2018-05-21T19:50:04.587Z,49.70
2018-05-21T19:52:31.984Z,48.45
2018-05-21T19:55:00.390Z,50.15
2018-05-21T19:57:27.784Z,49.47
2018-05-21T19:59:55.172Z,50.15
2018-05-21T20:02:22.564Z,49.40
2018-05-21T20:04:49.949Z,50.16
2018-05-21T20:07:17.404Z,48.10
2018-05-21T20:09:44.724Z,49.16
2018-05-21T20:12:12.113Z,50.35
2018-05-21T20:14:39.492Z,49.66
2018-05-21T20:17:06.887Z,50.48
2018-05-21T20:19:34.286Z,49.22
2018-05-21T20:22:01.679Z,49.99
2018-05-21T20:24:29.063Z,51.25
2018-05-21T20:26:56.444Z,49.98
2018-05-21T20:29:23.831Z,51.58
2018-05-21T20:31:51.210Z,52.36
2018-05-21T20:34:18.610Z,52.78
2018-05-21T20:36:45.994Z,49.23
2018-05-21T20:39:13.388Z,49.11
2018-05-21T20:41:40.763Z,50.37
2018-05-21T20:44:08.156Z,49.46
2018-05-21T20:46:35.542Z,50.39
2018-05-21T20:49:02.934Z,49.50
2018-05-21T20:51:30.409Z,49.77
2018-05-21T20:53:57.730Z,47.97
2018-05-21T20:56:25.118Z,49.79
2018-05-21T20:58:52.510Z,48.62
2018-05-21T21:01:19.988Z,49.00
2018-05-21T21:03:47.321Z,48.07
2018-05-21T21:06:14.691Z,48.72
2018-05-21T21:08:42.079Z,48.46
2018-05-21T21:11:09.467Z,48.10
2018-05-21T21:13:36.846Z,48.15
2018-05-21T21:16:04.235Z,48.73
2018-05-21T21:18:31.632Z,48.49
2018-05-21T21:20:59.015Z,49.43
2018-05-21T21:23:26.499Z,48.98
2018-05-21T21:25:53.821Z,49.82
2018-05-21T21:28:21.203Z,49.00
2018-05-21T21:30:48.597Z,49.32
2018-05-21T21:33:15.973Z,49.70
2018-05-21T21:35:43.358Z,48.74
2018-05-21T21:38:10.748Z,48.59
2018-05-21T21:40:38.141Z,48.61
2018-05-21T21:43:05.529Z,48.54
2018-05-21T21:45:32.915Z,48.43
2018-05-21T21:48:00.301Z,48.43
2018-05-21T21:50:27.687Z,48.32
2018-05-21T21:52:55.079Z,49.06
2018-05-21T21:55:22.467Z,48.81
2018-05-21T21:57:49.854Z,48.70
2018-05-21T22:00:17.238Z,48.57
2018-05-21T22:02:44.634Z,49.40
2018-05-21T22:05:12.015Z,50.07
2018-05-21T22:07:39.506Z,49.67
2018-05-21T22:10:06.895Z,49.33
2018-05-21T22:12:34.282Z,49.69
2018-05-21T22:15:01.662Z,48.98
2018-05-21T22:17:29.062Z,50.41
2018-05-21T22:19:56.447Z,49.73
2018-05-21T22:22:23.843Z,49.61
2018-05-21T22:24:51.218Z,49.14
2018-05-21T22:27:18.619Z,50.41
2018-05-21T22:29:46.003Z,49.84
2018-05-21T22:32:13.396Z,50.42
2018-05-21T22:34:40.779Z,50.19
2018-05-21T22:37:08.302Z,49.90
2018-05-21T22:39:35.691Z,49.59
2018-05-21T22:42:03.076Z,49.79
2018-05-21T22:44:30.466Z,50.88
2018-05-21T22:46:57.854Z,49.50
2018-05-21T22:49:25.250Z,51.74
2018-05-21T22:51:52.656Z,51.30
2018-05-21T22:54:31.858Z,50.67
2018-05-21T22:56:59.243Z,51.67
2018-05-21T22:59:26.635Z,51.80
2018-05-21T23:01:54.017Z,51.72
2018-05-21T23:04:21.403Z,50.58
2018-05-21T23:06:48.782Z,51.07
2018-05-21T23:09:16.174Z,51.31
2018-05-21T23:11:43.562Z,51.81
2018-05-21T23:14:10.944Z,52.51
2018-05-21T23:16:38.338Z,52.21
2018-05-21T23:19:05.723Z,51.56
2018-05-21T23:21:33.114Z,51.91
2018-05-21T23:24:00.495Z,52.95
2018-05-21T23:26:27.935Z,53.14
2018-05-21T23:28:55.299Z,53.38
2018-05-21T23:31:22.691Z,54.06
2018-05-21T23:33:50.075Z,52.84
2018-05-21T23:36:17.470Z,52.83
2018-05-21T23:38:44.854Z,53.40
2018-05-21T23:41:12.244Z,52.73
2018-05-21T23:43:39.627Z,53.49
2018-05-21T23:46:07.875Z,54.83
2018-05-21T23:48:35.262Z,55.11
2018-05-21T23:51:02.701Z,55.03
2018-05-21T23:53:30.034Z,54.43
2018-05-21T23:55:57.427Z,54.36
2018-05-21T23:58:24.806Z,55.79
